Time;durP1;ratioP1;P1;durP2;ratioP2;P2;SDS_P1;SDS_P2;PMS_P1;PMS_P2;Temp;Humidity;BMP_temperature;BMP_pressure;BME280_temperature;BME280_humidity;BME280_pressure;Samples;Min_cycle;Max_cycle;Signal;HPM_P1;HPM_P2
2022/06/10 00:00:59;;;;;;;0.90;0.52;;;23.70;1.00;;;;;;5066606;28;20392;-46
2022/06/10 00:03:25;;;;;;;3.08;0.50;;;23.50;1.00;;;;;;5088287;28;20044;-51
2022/06/10 00:05:55;;;;;;;2.45;0.40;;;23.60;1.00;;;;;;5075876;28;20073;-46
2022/06/10 00:08:24;;;;;;;3.90;0.55;;;23.10;1.00;;;;;;5080130;28;20029;-49
2022/06/10 00:10:51;;;;;;;1.55;0.40;;;23.30;1.00;;;;;;5077252;28;20517;-48
2022/06/10 00:13:22;;;;;;;0.60;0.30;;;23.40;1.00;;;;;;5082063;28;20021;-47
2022/06/10 00:15:49;;;;;;;2.42;0.60;;;23.40;1.00;;;;;;5092539;28;20024;-48
2022/06/10 00:18:16;;;;;;;0.60;0.30;;;23.30;1.00;;;;;;5090005;28;20024;-46
2022/06/10 00:20:42;;;;;;;1.85;0.47;;;23.40;1.00;;;;;;5093251;28;20016;-50
2022/06/10 00:23:08;;;;;;;1.45;0.40;;;23.30;1.00;;;;;;5096065;28;20036;-45
2022/06/10 00:25:34;;;;;;;1.85;0.40;;;23.40;1.00;;;;;;5057360;28;20021;-47
2022/06/10 00:28:00;;;;;;;0.40;0.40;;;23.40;1.00;;;;;;5095321;28;20461;-51
2022/06/10 00:30:29;;;;;;;0.90;0.40;;;23.30;1.00;;;;;;5077657;28;20024;-48
2022/06/10 00:32:56;;;;;;;1.95;0.50;;;23.40;1.00;;;;;;5094372;28;20028;-50
2022/06/10 00:35:22;;;;;;;4.68;0.38;;;23.30;1.00;;;;;;5078903;28;20040;-51
2022/06/10 00:37:48;;;;;;;4.10;0.40;;;23.30;1.00;;;;;;5092684;28;20103;-48
2022/06/10 00:40:17;;;;;;;0.80;0.40;;;23.40;1.00;;;;;;5080776;28;20021;-49
2022/06/10 00:42:43;;;;;;;1.23;0.30;;;23.10;1.00;;;;;;5092112;28;20071;-45
2022/06/10 00:45:47;;;;;;;1.17;0.38;;;23.00;1.00;;;;;;5082103;28;20028;-49
2022/06/10 00:48:17;;;;;;;2.83;0.40;;;23.30;1.00;;;;;;5085787;28;20035;-48
2022/06/10 00:50:44;;;;;;;1.02;0.50;;;23.30;1.00;;;;;;5062174;28;20024;-48
2022/06/10 00:53:13;;;;;;;0.88;0.47;;;23.10;1.00;;;;;;5074915;28;20025;-48
2022/06/10 00:55:42;;;;;;;1.38;0.38;;;23.20;1.00;;;;;;5081982;28;20056;-48
2022/06/10 00:58:32;;;;;;;1.35;0.30;;;23.20;1.00;;;;;;5094963;28;20028;-47
2022/06/10 01:00:58;;;;;;;2.80;0.50;;;23.20;1.00;;;;;;5061643;28;20500;-51
2022/06/10 01:03:24;;;;;;;0.88;0.40;;;23.20;1.00;;;;;;5091885;28;20505;-50
2022/06/10 01:05:49;;;;;;;1.50;0.45;;;23.10;1.00;;;;;;5074053;28;20025;-48
2022/06/10 01:08:19;;;;;;;2.38;0.50;;;23.20;1.00;;;;;;5072788;28;20036;-51
2022/06/10 01:10:53;;;;;;;0.30;0.22;;;23.00;1.00;;;;;;5080129;28;20020;-47
2022/06/10 01:13:38;;;;;;;1.08;0.40;;;23.20;1.00;;;;;;5082616;28;20060;-48
2022/06/10 01:16:22;;;;;;;2.45;0.38;;;23.10;1.00;;;;;;5083221;28;20063;-45
2022/06/10 01:19:10;;;;;;;0.65;0.20;;;23.10;1.00;;;;;;5071082;28;20032;-46
2022/06/10 01:21:50;;;;;;;0.40;0.40;;;23.20;1.00;;;;;;5079294;28;20031;-48
2022/06/10 01:24:25;;;;;;;0.80;0.35;;;23.10;1.00;;;;;;5090012;28;20064;-46
2022/06/10 01:30:13;;;;;;;1.20;0.57;;;22.90;1.00;;;;;;5073731;28;20035;-46
2022/06/10 01:33:13;;;;;;;0.63;0.32;;;23.00;1.00;;;;;;5074832;28;20032;-49
2022/06/10 01:35:44;;;;;;;1.15;0.50;;;22.90;1.00;;;;;;5073713;28;20457;-49
2022/06/10 01:38:25;;;;;;;1.52;0.73;;;22.90;1.00;;;;;;5058247;28;20056;-50
2022/06/10 01:41:05;;;;;;;2.03;0.43;;;22.90;1.00;;;;;;5073475;28;20108;-49
2022/06/10 01:43:46;;;;;;;0.68;0.40;;;22.80;1.00;;;;;;5073801;28;20031;-51
2022/06/10 01:46:34;;;;;;;0.95;0.38;;;22.80;1.00;;;;;;5073614;28;20032;-49
2022/06/10 01:49:24;;;;;;;1.63;0.45;;;22.70;1.00;;;;;;5073360;28;20088;-51
2022/06/10 01:52:04;;;;;;;2.42;0.30;;;22.70;1.00;;;;;;5068068;28;20036;-49
2022/06/10 01:54:40;;;;;;;0.65;0.22;;;22.80;1.00;;;;;;5072970;28;20043;-51
2022/06/10 01:57:16;;;;;;;0.60;0.28;;;22.70;1.00;;;;;;5073141;28;20021;-52
2022/06/10 01:59:52;;;;;;;1.45;0.55;;;22.90;1.00;;;;;;5075690;28;20036;-46
2022/06/10 02:02:25;;;;;;;0.47;0.30;;;22.60;1.00;;;;;;5075728;28;20049;-48
2022/06/10 02:05:01;;;;;;;1.15;0.30;;;22.80;1.00;;;;;;5066005;28;20469;-51
2022/06/10 02:07:42;;;;;;;5.05;0.50;;;22.70;1.00;;;;;;5073815;28;20024;-45
2022/06/10 02:10:31;;;;;;;0.77;0.25;;;22.80;1.00;;;;;;5077687;28;20040;-45
2022/06/10 02:13:08;;;;;;;0.80;0.30;;;22.80;1.00;;;;;;5071364;28;20489;-48
2022/06/10 02:15:38;;;;;;;0.25;0.20;;;22.80;1.00;;;;;;5086613;28;20044;-47
2022/06/10 02:18:11;;;;;;;1.13;0.25;;;22.80;1.00;;;;;;5093359;28;20024;-49
2022/06/10 02:20:44;;;;;;;0.80;0.43;;;22.60;1.00;;;;;;5091558;28;20031;-46
2022/06/10 02:23:13;;;;;;;3.08;0.20;;;22.60;1.00;;;;;;5059826;28;20477;-48
2022/06/10 02:25:50;;;;;;;1.38;0.30;;;22.50;1.00;;;;;;5081923;28;20039;-48
2022/06/10 02:28:23;;;;;;;1.98;0.20;;;22.50;1.00;;;;;;5078058;28;20093;-47
2022/06/10 02:31:13;;;;;;;0.95;0.30;;;22.50;1.00;;;;;;5072462;28;20025;-49
2022/06/10 02:33:39;;;;;;;1.45;0.22;;;22.50;1.00;;;;;;5070577;28;20017;-48
2022/06/10 02:36:32;;;;;;;0.80;0.30;;;22.60;1.00;;;;;;5091749;28;20036;-46
2022/06/10 02:39:31;;;;;;;1.90;0.32;;;22.40;1.00;;;;;;5091713;28;20085;-47
2022/06/10 02:42:11;;;;;;;0.85;0.20;;;22.60;1.00;;;;;;5091698;28;20016;-47
2022/06/10 02:44:59;;;;;;;0.38;0.25;;;22.60;1.00;;;;;;5073895;28;20477;-52
2022/06/10 02:47:28;;;;;;;1.35;0.32;;;22.50;1.00;;;;;;5085100;28;20028;-47
2022/06/10 02:49:54;;;;;;;2.45;0.50;;;22.60;1.00;;;;;;5074474;28;20032;-49
2022/06/10 02:52:23;;;;;;;1.08;0.35;;;22.50;1.00;;;;;;5092299;28;20054;-49
2022/06/10 02:54:48;;;;;;;1.30;0.30;;;22.50;1.00;;;;;;5075232;28;20063;-49
2022/06/10 02:57:18;;;;;;;1.38;0.30;;;22.50;1.00;;;;;;5064480;28;20123;-49
2022/06/10 03:02:47;;;;;;;0.70;0.20;;;22.40;1.00;;;;;;5086379;28;20079;-47
2022/06/10 03:05:20;;;;;;;2.17;0.30;;;22.40;1.00;;;;;;5091713;28;20036;-48
2022/06/10 03:07:59;;;;;;;1.45;0.30;;;22.50;1.00;;;;;;5087341;28;20374;-45
2022/06/10 03:10:44;;;;;;;1.88;0.28;;;22.40;1.00;;;;;;5076953;28;20028;-49
2022/06/10 03:13:36;;;;;;;0.70;0.40;;;22.40;1.00;;;;;;5091462;28;20032;-49
2022/06/10 03:16:14;;;;;;;2.47;0.32;;;22.30;1.00;;;;;;5072105;28;20093;-47
2022/06/10 03:19:06;;;;;;;1.20;0.40;;;22.30;1.00;;;;;;5075973;28;20358;-47
2022/06/10 03:21:53;;;;;;;1.55;0.43;;;22.30;1.00;;;;;;5059685;28;20454;-47
2022/06/10 03:24:28;;;;;;;1.27;0.45;;;22.40;1.00;;;;;;5077880;28;20047;-49
2022/06/10 03:27:13;;;;;;;1.48;0.50;;;22.20;1.00;;;;;;5091272;28;20032;-47
2022/06/10 03:29:41;;;;;;;1.02;0.38;;;22.30;1.00;;;;;;5079802;28;20104;-49
2022/06/10 03:32:13;;;;;;;1.23;0.38;;;22.30;1.00;;;;;;5091401;28;20063;-45
2022/06/10 03:34:48;;;;;;;0.88;0.50;;;22.40;1.00;;;;;;5086083;28;20505;-47
2022/06/10 03:37:17;;;;;;;0.95;0.40;;;22.20;1.00;;;;;;5089607;28;20044;-49
2022/06/10 03:39:52;;;;;;;0.60;0.30;;;22.40;1.00;;;;;;5078933;28;20381;-46
2022/06/10 03:42:19;;;;;;;2.95;0.77;;;22.20;1.00;;;;;;5091210;28;20028;-47
2022/06/10 03:44:49;;;;;;;2.85;0.45;;;22.10;1.00;;;;;;5090992;28;20066;-50
2022/06/10 03:47:29;;;;;;;1.42;0.63;;;22.20;1.00;;;;;;5091585;28;20373;-48
2022/06/10 03:50:03;;;;;;;1.08;0.45;;;22.10;1.00;;;;;;5086235;28;20592;-53
2022/06/10 03:52:32;;;;;;;6.72;0.57;;;22.00;1.00;;;;;;5091859;28;20040;-48
2022/06/10 03:54:58;;;;;;;2.72;0.28;;;22.00;1.00;;;;;;5072256;28;20498;-46
2022/06/10 03:57:24;;;;;;;0.63;0.22;;;22.10;1.00;;;;;;5090815;28;20026;-48
2022/06/10 03:59:50;;;;;;;1.55;0.30;;;22.00;1.00;;;;;;5074706;28;20025;-48
2022/06/10 04:02:16;;;;;;;0.80;0.35;;;22.20;1.00;;;;;;5062405;28;20040;-48
2022/06/10 04:04:43;;;;;;;1.30;0.28;;;22.00;1.00;;;;;;5072109;28;20559;-47
2022/06/10 04:07:11;;;;;;;2.40;0.22;;;22.00;1.00;;;;;;5091121;28;20032;-50
2022/06/10 04:09:37;;;;;;;1.15;0.50;;;22.10;1.00;;;;;;5077916;28;20483;-48
2022/06/10 04:12:03;;;;;;;2.47;0.30;;;22.10;1.00;;;;;;5087419;28;20035;-46
2022/06/10 04:14:28;;;;;;;2.05;0.50;;;22.10;1.00;;;;;;5072378;28;20528;-46
2022/06/10 04:16:54;;;;;;;2.47;0.40;;;22.00;1.00;;;;;;5089106;28;20044;-50
2022/06/10 04:19:20;;;;;;;0.90;0.35;;;22.20;1.00;;;;;;5085216;28;20024;-48
2022/06/10 04:21:46;;;;;;;1.75;0.22;;;22.20;1.00;;;;;;5081509;28;20033;-47
2022/06/10 04:24:11;;;;;;;1.10;0.60;;;22.00;1.00;;;;;;5072361;28;20027;-47
2022/06/10 04:26:37;;;;;;;2.35;0.43;;;21.90;1.00;;;;;;5077254;28;20441;-48
2022/06/10 04:29:03;;;;;;;0.52;0.30;;;22.20;1.00;;;;;;5072730;28;20485;-51
2022/06/10 04:31:29;;;;;;;3.10;0.50;;;22.10;1.00;;;;;;5087128;28;20024;-46
2022/06/10 04:33:55;;;;;;;2.50;0.30;;;22.10;1.00;;;;;;5066112;28;20025;-46
2022/06/10 04:36:20;;;;;;;2.08;0.50;;;22.10;1.00;;;;;;5078368;28;20024;-46
2022/06/10 04:38:46;;;;;;;0.85;0.30;;;22.20;1.00;;;;;;5085129;28;20394;-46
2022/06/10 04:41:12;;;;;;;1.00;0.32;;;22.00;1.00;;;;;;5080050;28;20020;-47
2022/06/10 04:43:38;;;;;;;0.98;0.35;;;22.20;1.00;;;;;;5088039;28;20028;-49
2022/06/10 04:46:08;;;;;;;1.48;0.30;;;22.00;1.00;;;;;;5073869;28;20032;-45
2022/06/10 04:48:34;;;;;;;1.48;0.50;;;22.10;1.00;;;;;;5076167;28;20024;-49
2022/06/10 04:51:01;;;;;;;0.63;0.40;;;22.00;1.00;;;;;;5069562;28;20110;-47
2022/06/10 04:53:27;;;;;;;2.65;0.57;;;22.20;1.00;;;;;;5058737;28;20047;-47
2022/06/10 04:55:53;;;;;;;3.08;0.50;;;22.10;1.00;;;;;;5079054;28;20028;-49
2022/06/10 04:58:18;;;;;;;1.02;0.50;;;22.10;1.00;;;;;;5078623;28;20025;-48
2022/06/10 05:00:49;;;;;;;0.47;0.30;;;22.10;1.00;;;;;;5074833;28;20029;-47
2022/06/10 05:03:16;;;;;;;2.22;0.65;;;22.10;1.00;;;;;;5089083;28;20048;-47
2022/06/10 05:05:42;;;;;;;1.38;0.70;;;22.20;1.00;;;;;;5077285;28;20028;-45
2022/06/10 05:08:11;;;;;;;2.47;0.70;;;22.10;1.00;;;;;;5081874;28;20028;-49
2022/06/10 05:10:37;;;;;;;1.10;0.50;;;22.10;1.00;;;;;;5076875;28;20031;-47
2022/06/10 05:13:03;;;;;;;2.08;0.43;;;22.10;1.00;;;;;;5093697;28;20032;-49
2022/06/10 05:15:28;;;;;;;1.70;0.45;;;22.20;1.00;;;;;;5076705;28;20095;-48
2022/06/10 05:17:57;;;;;;;2.63;0.85;;;22.20;1.00;;;;;;5085372;28;20024;-46
2022/06/10 05:20:27;;;;;;;0.90;0.70;;;22.20;1.00;;;;;;5086625;28;20069;-49
2022/06/10 05:22:53;;;;;;;0.47;0.43;;;22.20;1.00;;;;;;5058265;28;20029;-51
2022/06/10 05:25:19;;;;;;;0.77;0.45;;;22.20;1.00;;;;;;5056829;28;20028;-48
2022/06/10 05:27:45;;;;;;;2.70;0.60;;;22.30;1.00;;;;;;5075852;28;20155;-49
2022/06/10 05:30:18;;;;;;;0.88;0.40;;;22.40;1.00;;;;;;5074526;28;20052;-47
2022/06/10 05:32:44;;;;;;;2.27;0.43;;;22.30;1.00;;;;;;5076814;28;20078;-49
2022/06/10 05:35:10;;;;;;;3.78;0.60;;;22.40;1.00;;;;;;5074401;28;20036;-47
2022/06/10 05:37:35;;;;;;;1.10;0.32;;;22.20;1.00;;;;;;5077693;28;20444;-48
2022/06/10 05:40:01;;;;;;;3.35;0.68;;;22.30;1.00;;;;;;5084851;28;20371;-49
2022/06/10 05:42:27;;;;;;;2.45;0.57;;;22.30;1.00;;;;;;5077577;28;20024;-52
2022/06/10 05:44:52;;;;;;;3.92;0.60;;;22.40;1.00;;;;;;5058498;28;20020;-47
2022/06/10 05:47:33;;;;;;;0.47;0.47;;;22.40;1.00;;;;;;5088557;28;20058;-49
2022/06/10 05:50:00;;;;;;;1.17;0.50;;;22.40;1.00;;;;;;5074531;28;20044;-50
2022/06/10 05:52:28;;;;;;;2.15;1.05;;;22.60;1.00;;;;;;5089600;28;20035;-50
2022/06/10 05:54:57;;;;;;;2.78;0.60;;;22.50;1.00;;;;;;5093988;28;20469;-49
2022/06/10 05:57:24;;;;;;;4.75;0.55;;;22.60;1.00;;;;;;5063459;28;20028;-46
2022/06/10 05:59:52;;;;;;;1.42;0.57;;;22.50;1.00;;;;;;5073976;28;20051;-48
2022/06/10 06:02:17;;;;;;;1.60;0.30;;;22.70;1.00;;;;;;5086414;28;20048;-48
2022/06/10 06:04:43;;;;;;;1.10;0.65;;;22.60;1.00;;;;;;5085668;28;20074;-45
2022/06/10 06:07:11;;;;;;;2.00;0.40;;;22.80;1.00;;;;;;5090941;28;20047;-47
2022/06/10 06:09:36;;;;;;;3.78;0.50;;;22.70;1.00;;;;;;5080517;28;20035;-52
2022/06/10 06:12:03;;;;;;;1.33;0.43;;;22.60;1.00;;;;;;5083814;28;20024;-47
2022/06/10 06:14:29;;;;;;;3.22;0.70;;;22.60;1.00;;;;;;5064145;28;20047;-47
2022/06/10 06:16:58;;;;;;;0.63;0.40;;;22.70;1.00;;;;;;5090105;28;20024;-46
2022/06/10 06:19:25;;;;;;;4.18;0.50;;;22.70;1.00;;;;;;5087592;28;20504;-47
2022/06/10 06:21:51;;;;;;;2.70;0.40;;;22.80;1.00;;;;;;5090999;28;20055;-45
2022/06/10 06:24:17;;;;;;;5.10;0.50;;;23.00;1.00;;;;;;5076942;28;20060;-47
2022/06/10 06:26:43;;;;;;;1.13;0.50;;;22.90;1.00;;;;;;5081260;28;20052;-47
2022/06/10 06:29:09;;;;;;;1.63;0.30;;;22.90;1.00;;;;;;5061286;28;20036;-45
2022/06/10 06:31:35;;;;;;;1.17;0.40;;;23.00;1.00;;;;;;5072872;28;20423;-45
2022/06/10 06:34:01;;;;;;;1.95;0.40;;;23.10;1.00;;;;;;5080360;28;20020;-49
2022/06/10 06:36:27;;;;;;;3.88;0.70;;;23.20;1.00;;;;;;5073407;28;20086;-47
2022/06/10 06:38:53;;;;;;;2.85;0.50;;;23.10;1.00;;;;;;5072976;28;20031;-46
2022/06/10 06:41:21;;;;;;;1.20;0.50;;;23.20;1.00;;;;;;5068215;28;20031;-43
2022/06/10 06:43:47;;;;;;;0.77;0.47;;;23.20;1.00;;;;;;5073248;28;20296;-44
2022/06/10 06:46:15;;;;;;;2.60;0.40;;;23.40;1.00;;;;;;5073707;28;20052;-44
2022/06/10 06:48:42;;;;;;;1.85;0.50;;;23.30;1.00;;;;;;5073253;28;20024;-44
2022/06/10 06:51:08;;;;;;;0.85;0.45;;;23.50;1.00;;;;;;5073603;28;20027;-46
2022/06/10 06:53:34;;;;;;;2.95;0.47;;;23.50;1.00;;;;;;5072983;28;20020;-49
2022/06/10 06:56:05;;;;;;;1.65;0.30;;;23.40;1.00;;;;;;5073183;28;20418;-44
2022/06/10 06:58:33;;;;;;;1.35;0.22;;;23.40;1.00;;;;;;5085416;28;20024;-46
2022/06/10 07:00:58;;;;;;;3.95;0.50;;;23.40;1.00;;;;;;5085346;28;20066;-46
2022/06/10 07:03:25;;;;;;;1.60;0.43;;;23.50;1.00;;;;;;5055985;28;20068;-44
2022/06/10 07:05:52;;;;;;;3.90;0.60;;;23.50;1.00;;;;;;5078031;28;20028;-44
2022/06/10 07:08:18;;;;;;;1.95;0.65;;;23.60;1.00;;;;;;5075831;28;20233;-44
2022/06/10 07:10:45;;;;;;;4.35;1.20;;;23.70;1.00;;;;;;5085170;28;20033;-44
2022/06/10 07:13:12;;;;;;;1.10;0.60;;;23.70;1.00;;;;;;5076075;28;20025;-48
2022/06/10 07:15:39;;;;;;;1.75;0.55;;;23.80;1.00;;;;;;5073129;28;20178;-44
2022/06/10 07:18:06;;;;;;;2.05;0.40;;;23.70;1.00;;;;;;5081124;28;20366;-48
2022/06/10 07:20:33;;;;;;;1.48;0.45;;;23.70;1.00;;;;;;5083012;28;20035;-45
2022/06/10 07:23:00;;;;;;;2.30;0.60;;;23.80;1.00;;;;;;5081839;28;20031;-43
2022/06/10 07:25:27;;;;;;;0.45;0.40;;;23.90;1.00;;;;;;5078558;28;20032;-46
2022/06/10 07:27:53;;;;;;;3.15;0.50;;;23.90;1.00;;;;;;5091885;28;20021;-51
2022/06/10 07:30:20;;;;;;;0.30;0.30;;;23.90;1.00;;;;;;5074687;28;20032;-45
2022/06/10 07:32:46;;;;;;;3.33;0.52;;;24.20;1.00;;;;;;5084853;28;20026;-50
2022/06/10 07:35:13;;;;;;;0.77;0.50;;;24.00;1.00;;;;;;5072806;28;20037;-47
2022/06/10 07:37:39;;;;;;;1.20;0.85;;;24.10;1.00;;;;;;5070438;28;20024;-48
2022/06/10 07:40:06;;;;;;;1.55;0.80;;;24.30;1.00;;;;;;5078074;28;20033;-44
2022/06/10 07:42:34;;;;;;;2.72;0.70;;;24.30;1.00;;;;;;5073200;28;20363;-47
2022/06/10 07:45:05;;;;;;;2.80;0.52;;;24.30;1.00;;;;;;5084675;28;20024;-45
2022/06/10 07:47:30;;;;;;;5.60;1.20;;;24.30;1.00;;;;;;5079566;28;20024;-43
2022/06/10 07:49:56;;;;;;;1.40;0.50;;;24.40;1.00;;;;;;5091636;28;20032;-49
2022/06/10 07:52:21;;;;;;;2.33;0.50;;;24.40;1.00;;;;;;5090144;28;20020;-48
2022/06/10 07:54:47;;;;;;;0.73;0.30;;;24.60;1.00;;;;;;5072289;28;20157;-48
2022/06/10 07:57:13;;;;;;;1.17;0.32;;;24.40;1.00;;;;;;5088386;28;20111;-45
2022/06/10 07:59:42;;;;;;;4.60;0.60;;;24.60;1.00;;;;;;5088009;28;20024;-45
2022/06/10 08:02:09;;;;;;;1.33;0.68;;;24.70;1.00;;;;;;5086504;28;20068;-44
2022/06/10 08:04:34;;;;;;;4.55;0.77;;;24.70;1.00;;;;;;5090981;28;20513;-46
2022/06/10 08:07:00;;;;;;;1.20;0.70;;;25.00;1.00;;;;;;5090330;28;20153;-46
2022/06/10 08:09:26;;;;;;;1.58;0.30;;;25.00;1.00;;;;;;5071784;28;20046;-45
2022/06/10 08:11:52;;;;;;;1.00;0.57;;;24.90;1.00;;;;;;5087201;28;20105;-43
2022/06/10 08:14:18;;;;;;;1.95;0.40;;;24.80;1.00;;;;;;5084778;28;20036;-45
2022/06/10 08:16:44;;;;;;;2.47;0.40;;;24.90;1.00;;;;;;5075924;28;20032;-48
2022/06/10 08:19:09;;;;;;;5.90;1.02;;;24.80;1.00;;;;;;5083388;28;20091;-44
2022/06/10 08:24:20;;;;;;;;;;;25.00;1.00;;;;;;5079852;28;20047;-46
2022/06/10 08:26:49;;;;;;;1.48;0.63;;;25.00;1.00;;;;;;5076934;28;20273;-46
2022/06/10 08:29:16;;;;;;;1.42;0.55;;;25.10;1.00;;;;;;5095592;28;20024;-45
2022/06/10 08:31:42;;;;;;;1.83;0.40;;;25.00;1.00;;;;;;5078925;28;20017;-43
2022/06/10 08:34:07;;;;;;;0.40;0.40;;;25.00;1.00;;;;;;5077417;28;20481;-43
2022/06/10 08:36:33;;;;;;;0.65;0.30;;;25.00;1.00;;;;;;5081841;28;20021;-43
2022/06/10 08:39:00;;;;;;;2.80;1.80;;;25.10;1.00;;;;;;5084522;28;20028;-43
2022/06/10 08:41:46;;;;;;;1.33;0.63;;;25.20;1.00;;;;;;5083412;28;20054;-46
2022/06/10 08:44:21;;;;;;;2.03;0.30;;;25.40;1.00;;;;;;5081691;28;20032;-46
2022/06/10 08:47:05;;;;;;;0.47;0.30;;;25.30;1.00;;;;;;5077947;28;20377;-44
2022/06/10 08:49:58;;;;;;;0.80;0.50;;;25.50;1.00;;;;;;5078774;28;20063;-49
2022/06/10 08:53:03;;;;;;;0.77;0.77;;;25.40;1.00;;;;;;5078899;28;20047;-45
2022/06/10 08:55:57;;;;;;;1.63;0.52;;;25.60;1.00;;;;;;5062610;28;20053;-46
2022/06/10 08:58:54;;;;;;;0.73;0.45;;;25.40;1.00;;;;;;5083319;28;20031;-45
2022/06/10 09:01:22;;;;;;;2.08;0.68;;;25.60;1.00;;;;;;5082538;28;20036;-43
2022/06/10 09:04:02;;;;;;;2.15;0.45;;;25.50;1.00;;;;;;5078645;28;20119;-43
2022/06/10 09:06:48;;;;;;;1.58;0.57;;;25.70;1.00;;;;;;5081502;28;20122;-46
2022/06/10 09:09:15;;;;;;;2.05;0.60;;;25.70;1.00;;;;;;5081182;28;20040;-43
2022/06/10 09:11:46;;;;;;;0.22;0.22;;;25.70;1.00;;;;;;5083181;28;20021;-45
2022/06/10 09:14:20;;;;;;;2.83;0.40;;;25.70;1.00;;;;;;5079706;28;20043;-47
2022/06/10 09:17:06;;;;;;;0.32;0.20;;;25.60;1.00;;;;;;5077599;28;20020;-46
2022/06/10 09:19:51;;;;;;;0.50;0.30;;;25.60;1.00;;;;;;5079773;28;20093;-46
2022/06/10 09:22:47;;;;;;;1.65;0.50;;;25.80;1.00;;;;;;5078259;28;20948;-49
2022/06/10 09:25:29;;;;;;;1.52;0.80;;;25.70;1.00;;;;;;5085781;28;20066;-46
2022/06/10 09:27:57;;;;;;;1.50;0.40;;;25.80;1.00;;;;;;5064063;28;20031;-43
2022/06/10 09:31:02;;;;;;;1.48;0.93;;;26.00;1.00;;;;;;5083507;28;20027;-43
2022/06/10 09:33:49;;;;;;;7.63;2.78;;;26.00;1.00;;;;;;5081795;28;20141;-44
2022/06/10 09:36:42;;;;;;;4.50;3.25;;;26.00;1.00;;;;;;5079771;28;20478;-44
2022/06/10 09:42:42;;;;;;;1.20;0.75;;;26.20;1.00;;;;;;5024415;28;20053;-43
2022/06/10 09:45:33;;;;;;;1.65;0.73;;;26.30;1.00;;;;;;5072395;28;20040;-43
2022/06/10 09:48:18;;;;;;;0.68;0.50;;;26.20;1.00;;;;;;5078621;28;20469;-45
2022/06/10 09:50:51;;;;;;;0.98;0.98;;;26.30;1.00;;;;;;5078479;28;20074;-45
2022/06/10 09:53:33;;;;;;;2.30;1.13;;;26.30;1.00;;;;;;5083313;28;21961;-43
2022/06/10 09:56:13;;;;;;;0.88;0.70;;;26.30;1.00;;;;;;5079447;28;20040;-43
2022/06/10 09:58:54;;;;;;;1.08;0.70;;;26.30;1.00;;;;;;5079898;28;20032;-47
2022/06/10 10:01:39;;;;;;;1.38;0.60;;;26.40;1.00;;;;;;5065030;28;20064;-44
2022/06/10 10:04:29;;;;;;;1.05;0.60;;;26.40;1.00;;;;;;5078621;28;20040;-43
2022/06/10 10:07:23;;;;;;;0.63;0.47;;;26.70;1.00;;;;;;5076688;28;20029;-43
2022/06/10 10:10:13;;;;;;;0.35;0.30;;;26.60;1.00;;;;;;5068609;28;20040;-46
2022/06/10 10:13:03;;;;;;;0.30;0.30;;;26.80;1.00;;;;;;5081637;28;20528;-44
2022/06/10 10:15:37;;;;;;;0.47;0.40;;;26.70;1.00;;;;;;5076858;28;20036;-44
2022/06/10 10:18:14;;;;;;;0.68;0.40;;;26.80;1.00;;;;;;5081055;28;20029;-44
2022/06/10 10:21:09;;;;;;;3.95;0.85;;;26.70;1.00;;;;;;5079827;28;20047;-44
2022/06/10 10:23:49;;;;;;;0.98;0.30;;;27.00;1.00;;;;;;5087034;28;20090;-48
2022/06/10 10:26:23;;;;;;;3.08;0.70;;;27.00;1.00;;;;;;5074518;28;20020;-46
2022/06/10 10:28:55;;;;;;;1.85;0.50;;;27.10;1.00;;;;;;5084328;28;20043;-49
2022/06/10 10:31:23;;;;;;;0.75;0.45;;;27.50;1.00;;;;;;5085916;28;20028;-44
2022/06/10 10:33:49;;;;;;;3.50;1.08;;;27.30;1.00;;;;;;5083301;28;20047;-45
2022/06/10 10:36:38;;;;;;;2.15;1.00;;;27.60;1.00;;;;;;5075267;28;20082;-47
2022/06/10 10:39:38;;;;;;;4.55;0.82;;;27.40;1.00;;;;;;5047687;28;20505;-45
2022/06/10 10:42:13;;;;;;;2.72;0.85;;;27.70;1.00;;;;;;5072175;28;20036;-48
2022/06/10 10:44:44;;;;;;;1.38;0.80;;;27.80;1.00;;;;;;5073224;28;20036;-46
2022/06/10 10:47:10;;;;;;;3.25;1.00;;;27.80;1.00;;;;;;5082192;28;20017;-45
2022/06/10 10:49:37;;;;;;;4.00;2.35;;;28.00;1.00;;;;;;5088173;28;20026;-47
2022/06/10 10:52:14;;;;;;;2.10;1.38;;;28.00;1.00;;;;;;5084033;28;20029;-48
2022/06/10 10:54:42;;;;;;;3.08;1.40;;;28.00;1.00;;;;;;5074719;28;20130;-46
2022/06/10 10:57:36;;;;;;;1.58;0.70;;;28.10;1.00;;;;;;5083976;28;20027;-46
2022/06/10 11:00:11;;;;;;;3.72;1.00;;;28.00;1.00;;;;;;5078448;28;20036;-43
2022/06/10 11:02:48;;;;;;;3.03;0.90;;;28.10;1.00;;;;;;5073420;28;20050;-52
2022/06/10 11:05:35;;;;;;;2.53;0.90;;;28.40;1.00;;;;;;5087458;28;20057;-47
2022/06/10 11:08:24;;;;;;;3.22;1.00;;;28.70;1.00;;;;;;5087296;28;20035;-47
2022/06/10 11:11:00;;;;;;;3.90;0.90;;;28.70;1.00;;;;;;5075256;28;20074;-44
2022/06/10 11:13:34;;;;;;;2.35;0.88;;;28.80;1.00;;;;;;5080468;28;20028;-45
2022/06/10 11:16:38;;;;;;;0.93;0.70;;;28.90;1.00;;;;;;5073220;28;20044;-44
2022/06/10 11:19:27;;;;;;;1.02;0.65;;;29.10;1.00;;;;;;5092036;28;20447;-46
2022/06/10 11:22:01;;;;;;;1.17;1.00;;;29.30;1.00;;;;;;5083700;28;20020;-48
2022/06/10 11:24:42;;;;;;;3.10;1.90;;;29.60;1.00;;;;;;5085323;28;20134;-44
2022/06/10 11:27:26;;;;;;;1.95;1.13;;;30.40;1.00;;;;;;5072314;28;20033;-44
2022/06/10 11:30:05;;;;;;;1.63;1.00;;;30.60;1.00;;;;;;5064764;28;20359;-46
2022/06/10 11:32:36;;;;;;;1.52;1.13;;;30.90;1.00;;;;;;5057159;28;20060;-46
2022/06/10 11:35:19;;;;;;;1.73;0.90;;;31.30;1.00;;;;;;5092805;28;20028;-46
2022/06/10 11:37:58;;;;;;;3.67;0.82;;;31.80;1.00;;;;;;5076241;28;20020;-43
2022/06/10 11:40:27;;;;;;;1.52;1.23;;;31.70;1.00;;;;;;5095708;28;20465;-46
2022/06/10 11:43:12;;;;;;;1.60;1.30;;;32.00;1.00;;;;;;5063044;28;20020;-46
2022/06/10 11:45:48;;;;;;;1.85;1.33;;;32.70;1.00;;;;;;5097154;28;20032;-45
2022/06/10 11:48:50;;;;;;;3.33;1.70;;;33.00;1.00;;;;;;5090765;28;20106;-49
2022/06/10 11:51:18;;;;;;;4.20;3.80;;;33.70;1.00;;;;;;5086466;28;20025;-47
2022/06/10 11:54:05;;;;;;;2.65;1.58;;;34.50;1.00;;;;;;5087359;28;20116;-45
2022/06/10 11:59:57;;;;;;;3.17;1.55;;;35.90;1.00;;;;;;5076753;28;20078;-44
2022/06/10 12:02:52;;;;;;;1.38;1.27;;;35.60;1.00;;;;;;5076084;28;20049;-48
2022/06/10 12:05:31;;;;;;;1.55;1.35;;;35.30;1.00;;;;;;5056985;28;20047;-47
2022/06/10 12:08:07;;;;;;;1.50;1.40;;;35.60;1.00;;;;;;5087711;28;20091;-45
2022/06/10 12:11:17;;;;;;;1.65;1.60;;;35.50;1.00;;;;;;5095232;28;20093;-44
2022/06/10 12:13:56;;;;;;;4.47;1.60;;;35.10;1.00;;;;;;5030606;28;20508;-45
2022/06/10 12:16:24;;;;;;;5.07;1.95;;;35.60;1.00;;;;;;5073202;28;20025;-45
2022/06/10 12:18:51;;;;;;;4.85;1.90;;;35.50;1.00;;;;;;5081328;28;20030;-46
2022/06/10 12:21:21;;;;;;;3.42;2.60;;;35.40;1.00;;;;;;5080154;28;20032;-44
2022/06/10 12:23:47;;;;;;;3.28;2.13;;;35.20;1.00;;;;;;5075541;28;20031;-45
2022/06/10 12:26:35;;;;;;;2.60;2.17;;;34.90;1.00;;;;;;5076101;28;20028;-47
2022/06/10 12:29:14;;;;;;;3.00;2.10;;;34.90;1.00;;;;;;5082829;28;20035;-49
2022/06/10 12:31:51;;;;;;;3.70;2.17;;;35.20;1.00;;;;;;5079516;28;20495;-48
2022/06/10 12:34:33;;;;;;;3.03;2.17;;;35.50;1.00;;;;;;5085520;28;20039;-46
2022/06/10 12:37:07;;;;;;;2.78;2.00;;;36.20;1.00;;;;;;5078224;28;20465;-46
2022/06/10 12:39:45;;;;;;;3.33;2.20;;;36.80;1.00;;;;;;5088143;28;20036;-49
2022/06/10 12:42:20;;;;;;;2.20;2.10;;;38.70;1.00;;;;;;5077330;28;20021;-44
2022/06/10 12:44:50;;;;;;;2.38;2.28;;;41.00;1.00;;;;;;5092522;28;20020;-45
2022/06/10 12:47:27;;;;;;;2.20;2.10;;;42.40;1.00;;;;;;5077170;28;20028;-44
2022/06/10 12:50:02;;;;;;;3.78;2.30;;;43.10;1.00;;;;;;5090894;28;20054;-43
2022/06/10 12:52:46;;;;;;;2.92;2.50;;;43.80;1.00;;;;;;5087816;28;20032;-46
2022/06/10 12:55:26;;;;;;;2.25;2.15;;;44.60;1.00;;;;;;5060683;28;20047;-47
2022/06/10 12:57:53;;;;;;;2.60;2.42;;;45.70;1.00;;;;;;5077893;28;20378;-44
2022/06/10 13:00:18;;;;;;;2.70;2.50;;;45.30;1.00;;;;;;5091740;28;20432;-46
2022/06/10 13:02:46;;;;;;;2.90;2.70;;;43.60;1.00;;;;;;5077897;28;20084;-47
2022/06/10 13:05:19;;;;;;;2.47;2.30;;;42.40;1.00;;;;;;5083821;28;20347;-48
2022/06/10 13:07:45;;;;;;;;;;;40.70;1.00;;;;;;5078771;28;20020;-44
2022/06/10 13:10:29;;;;;;;2.30;2.10;;;38.40;1.00;;;;;;5079193;28;19915;-47
2022/06/10 13:13:21;;;;;;;2.30;2.22;;;38.00;1.00;;;;;;5087290;28;20412;-46
2022/06/10 13:15:46;;;;;;;2.45;2.25;;;38.30;1.00;;;;;;5088068;28;20043;-46
2022/06/10 13:18:18;;;;;;;2.40;2.30;;;39.60;1.00;;;;;;5075609;28;20382;-45
2022/06/10 13:20:45;;;;;;;2.50;2.40;;;39.20;1.00;;;;;;5081194;28;20025;-51
2022/06/10 13:23:26;;;;;;;2.25;2.15;;;38.30;1.00;;;;;;5074649;28;20031;-45
2022/06/10 13:26:14;;;;;;;2.97;2.50;;;37.70;1.00;;;;;;5063093;28;20555;-48
2022/06/10 13:28:43;;;;;;;2.70;2.60;;;37.40;1.00;;;;;;5074047;28;20024;-44
2022/06/10 13:31:17;;;;;;;3.15;2.35;;;37.20;1.00;;;;;;5073316;28;20032;-45
2022/06/10 13:33:57;;;;;;;2.28;2.17;;;37.20;1.00;;;;;;5074034;28;20020;-48
2022/06/10 13:36:26;;;;;;;2.45;2.20;;;37.20;1.00;;;;;;5088642;28;20028;-48
2022/06/10 13:38:55;;;;;;;2.17;2.17;;;37.50;1.00;;;;;;5076072;28;20067;-45
2022/06/10 13:41:48;;;;;;;2.40;2.30;;;37.40;1.00;;;;;;5080895;28;20512;-46
2022/06/10 13:44:43;;;;;;;2.30;2.20;;;38.20;1.00;;;;;;5079444;28;20024;-44
2022/06/10 13:47:29;;;;;;;2.28;2.17;;;38.90;1.00;;;;;;5081790;28;20488;-48